sensor_id;sensor_type;location;lat;lon;timestamp;pressure;altitude;pressure_sealevel;temperature;humidity
57574;BME280;63722;48.858;21.906;2022-09-27T00:00:19;97446.19;;;17.54;49.49
57574;BME280;63722;48.858;21.906;2022-09-27T00:02:45;97446.19;;;17.54;49.63
57574;BME280;63722;48.858;21.906;2022-09-27T00:05:11;97432.06;;;17.48;49.15
57574;BME280;63722;48.858;21.906;2022-09-27T00:07:36;97440.09;;;17.53;49.76
57574;BME280;63722;48.858;21.906;2022-09-27T00:10:02;97433.19;;;17.52;49.80
57574;BME280;63722;48.858;21.906;2022-09-27T00:12:27;97435.56;;;17.54;49.41
57574;BME280;63722;48.858;21.906;2022-09-27T00:14:53;97433.97;;;17.53;49.29
57574;BME280;63722;48.858;21.906;2022-09-27T00:17:18;97429.50;;;17.53;49.75
57574;BME280;63722;48.858;21.906;2022-09-27T00:19:44;97430.53;;;17.52;49.08
57574;BME280;63722;48.858;21.906;2022-09-27T00:22:09;97429.75;;;17.52;49.75
57574;BME280;63722;48.858;21.906;2022-09-27T00:24:34;97433.19;;;17.52;49.58
57574;BME280;63722;48.858;21.906;2022-09-27T00:27:00;97426.84;;;17.53;49.67
57574;BME280;63722;48.858;21.906;2022-09-27T00:29:25;97414.34;;;17.49;49.06
57574;BME280;63722;48.858;21.906;2022-09-27T00:31:51;97426.03;;;17.53;49.64
57574;BME280;63722;48.858;21.906;2022-09-27T00:34:22;97426.28;;;17.51;49.29
57574;BME280;63722;48.858;21.906;2022-09-27T00:36:49;97420.19;;;17.51;49.80
57574;BME280;63722;48.858;21.906;2022-09-27T00:39:15;97413.84;;;17.52;49.46
57574;BME280;63722;48.858;21.906;2022-09-27T00:41:41;97411.19;;;17.52;49.34
57574;BME280;63722;48.858;21.906;2022-09-27T00:47:42;97406.69;;;17.52;49.45
57574;BME280;63722;48.858;21.906;2022-09-27T00:52:15;97398.97;;;17.51;49.72
57574;BME280;63722;48.858;21.906;2022-09-27T00:54:43;97403.25;;;17.52;49.60
57574;BME280;63722;48.858;21.906;2022-09-27T00:57:10;97403.50;;;17.50;49.66
57574;BME280;63722;48.858;21.906;2022-09-27T00:59:43;97411.97;;;17.52;49.50
57574;BME280;63722;48.858;21.906;2022-09-27T01:02:10;97398.97;;;17.51;49.69
57574;BME280;63722;48.858;21.906;2022-09-27T01:04:37;97391.81;;;17.51;49.25
57574;BME280;63722;48.858;21.906;2022-09-27T01:07:04;97388.63;;;17.49;49.49
57574;BME280;63722;48.858;21.906;2022-09-27T01:09:29;97396.34;;;17.51;49.27
57574;BME280;63722;48.858;21.906;2022-09-27T01:31:30;97376.16;;;17.50;49.50
57574;BME280;63722;48.858;21.906;2022-09-27T01:34:11;97369.81;;;17.51;49.65
57574;BME280;63722;48.858;21.906;2022-09-27T01:42:39;97365.56;;;17.50;49.36
57574;BME280;63722;48.858;21.906;2022-09-27T01:45:16;97364.78;;;17.49;49.30
57574;BME280;63722;48.858;21.906;2022-09-27T01:47:48;97362.91;;;17.50;49.65
57574;BME280;63722;48.858;21.906;2022-09-27T01:50:23;97362.91;;;17.50;49.57
57574;BME280;63722;48.858;21.906;2022-09-27T01:52:58;97359.47;;;17.49;49.78
57574;BME280;63722;48.858;21.906;2022-09-27T01:55:30;97354.19;;;17.49;49.35
57574;BME280;63722;48.858;21.906;2022-09-27T01:58:05;97349.91;;;17.48;49.79
57574;BME280;63722;48.858;21.906;2022-09-27T02:00:35;97346.22;;;17.49;49.70
57574;BME280;63722;48.858;21.906;2022-09-27T02:03:19;97348.09;;;17.49;49.66
57574;BME280;63722;48.858;21.906;2022-09-27T02:05:50;97342.78;;;17.49;49.45
57574;BME280;63722;48.858;21.906;2022-09-27T02:08:27;97343.56;;;17.49;49.51
57574;BME280;63722;48.858;21.906;2022-09-27T02:10:57;97341.19;;;17.48;49.38
57574;BME280;63722;48.858;21.906;2022-09-27T02:14:15;97341.19;;;17.48;49.58
57574;BME280;63722;48.858;21.906;2022-09-27T02:16:19;97339.31;;;17.48;49.65
57574;BME280;63722;48.858;21.906;2022-09-27T02:21:14;97330.59;;;17.48;49.63
57574;BME280;63722;48.858;21.906;2022-09-27T02:23:46;97327.94;;;17.48;49.20
57574;BME280;63722;48.858;21.906;2022-09-27T02:26:16;97323.66;;;17.47;49.35
57574;BME280;63722;48.858;21.906;2022-09-27T02:28:59;97323.66;;;17.47;49.42
57574;BME280;63722;48.858;21.906;2022-09-27T02:31:26;97326.06;;;17.48;49.36
57574;BME280;63722;48.858;21.906;2022-09-27T02:33:55;97319.19;;;17.47;49.69
57574;BME280;63722;48.858;21.906;2022-09-27T02:36:23;97319.97;;;17.48;49.55
57574;BME280;63722;48.858;21.906;2022-09-27T02:38:49;97317.59;;;17.46;49.38
57574;BME280;63722;48.858;21.906;2022-09-27T02:41:20;97319.19;;;17.47;49.34
57574;BME280;63722;48.858;21.906;2022-09-27T02:43:49;97321.03;;;17.47;49.69
57574;BME280;63722;48.858;21.906;2022-09-27T02:57:46;97315.47;;;17.48;49.18
57574;BME280;63722;48.858;21.906;2022-09-27T03:00:20;97320.78;;;17.48;49.69
57574;BME280;63722;48.858;21.906;2022-09-27T03:03:01;97313.06;;;17.47;49.44
57574;BME280;63722;48.858;21.906;2022-09-27T03:05:34;97302.72;;;17.45;49.31
57574;BME280;63722;48.858;21.906;2022-09-27T03:08:02;97302.47;;;17.47;49.63
57574;BME280;63722;48.858;21.906;2022-09-27T03:10:28;97296.63;;;17.45;49.29
57574;BME280;63722;48.858;21.906;2022-09-27T03:12:55;97300.63;;;17.47;49.65
57574;BME280;63722;48.858;21.906;2022-09-27T03:15:22;97299.28;;;17.45;49.46
57574;BME280;63722;48.858;21.906;2022-09-27T03:17:48;97299.81;;;17.47;49.40
57574;BME280;63722;48.858;21.906;2022-09-27T03:20:13;97296.38;;;17.46;49.25
57574;BME280;63722;48.858;21.906;2022-09-27T03:22:39;97294.53;;;17.47;49.69
57574;BME280;63722;48.858;21.906;2022-09-27T03:25:05;97297.16;;;17.47;49.68
57574;BME280;63722;48.858;21.906;2022-09-27T03:27:31;97288.44;;;17.46;49.52
57574;BME280;63722;48.858;21.906;2022-09-27T03:29:56;97291.09;;;17.46;49.27
57574;BME280;63722;48.858;21.906;2022-09-27T03:32:22;97272.78;;;17.45;49.52
57574;BME280;63722;48.858;21.906;2022-09-27T03:34:47;97275.19;;;17.46;49.67
57574;BME280;63722;48.858;21.906;2022-09-27T03:37:13;97276.22;;;17.45;49.54
57574;BME280;63722;48.858;21.906;2022-09-27T03:39:38;97291.09;;;17.46;49.39
57574;BME280;63722;48.858;21.906;2022-09-27T03:42:04;97290.28;;;17.46;49.42
57574;BME280;63722;48.858;21.906;2022-09-27T03:44:30;97290.81;;;17.43;49.75
57574;BME280;63722;48.858;21.906;2022-09-27T03:46:57;97298.25;;;17.46;49.59
57574;BME280;63722;48.858;21.906;2022-09-27T03:49:22;97300.06;;;17.45;49.54
57574;BME280;63722;48.858;21.906;2022-09-27T03:51:48;97306.19;;;17.46;49.49
57574;BME280;63722;48.858;21.906;2022-09-27T03:54:13;97300.06;;;17.45;49.38
57574;BME280;63722;48.858;21.906;2022-09-27T03:56:39;97290.28;;;17.46;49.43
57574;BME280;63722;48.858;21.906;2022-09-27T03:59:04;97285.78;;;17.46;49.42
57574;BME280;63722;48.858;21.906;2022-09-27T04:01:30;97283.38;;;17.45;49.29
57574;BME280;63722;48.858;21.906;2022-09-27T04:03:55;97279.69;;;17.46;49.63
57574;BME280;63722;48.858;21.906;2022-09-27T04:06:20;97279.69;;;17.46;49.36
57574;BME280;63722;48.858;21.906;2022-09-27T04:08:47;97276.50;;;17.44;49.63
57574;BME280;63722;48.858;21.906;2022-09-27T04:11:12;97284.19;;;17.45;49.43
57574;BME280;63722;48.858;21.906;2022-09-27T04:13:39;97278.09;;;17.45;49.38
57574;BME280;63722;48.858;21.906;2022-09-27T04:16:05;97279.69;;;17.46;49.25
57574;BME280;63722;48.858;21.906;2022-09-27T04:18:32;97288.69;;;17.45;49.25
57574;BME280;63722;48.858;21.906;2022-09-27T04:20:57;97284.44;;;17.44;49.27
57574;BME280;63722;48.858;21.906;2022-09-27T04:23:23;97283.38;;;17.45;49.43
57574;BME280;63722;48.858;21.906;2022-09-27T04:25:48;97276.50;;;17.44;49.77
57574;BME280;63722;48.858;21.906;2022-09-27T04:28:14;97279.41;;;17.42;49.64
57574;BME280;63722;48.858;21.906;2022-09-27T04:30:39;97281.00;;;17.43;49.76
57574;BME280;63722;48.858;21.906;2022-09-27T04:33:06;97281.25;;;17.42;49.60
57574;BME280;63722;48.858;21.906;2022-09-27T04:35:31;97281.78;;;17.44;49.26
57574;BME280;63722;48.858;21.906;2022-09-27T04:38:15;97282.84;;;17.43;49.70
57574;BME280;63722;48.858;21.906;2022-09-27T04:40:41;97292.38;;;17.44;49.67
57574;BME280;63722;48.858;21.906;2022-09-27T04:43:06;97288.94;;;17.43;49.40
57574;BME280;63722;48.858;21.906;2022-09-27T04:45:32;97281.78;;;17.44;49.43
57574;BME280;63722;48.858;21.906;2022-09-27T04:47:58;97283.38;;;17.45;49.24
57574;BME280;63722;48.858;21.906;2022-09-27T04:50:24;97278.34;;;17.43;49.83
57574;BME280;63722;48.858;21.906;2022-09-27T04:52:50;97279.94;;;17.44;49.68
57574;BME280;63722;48.858;21.906;2022-09-27T04:55:17;97281.00;;;17.43;49.69
57574;BME280;63722;48.858;21.906;2022-09-27T04:57:43;97281.78;;;17.44;49.71
57574;BME280;63722;48.858;21.906;2022-09-27T05:00:08;97274.66;;;17.44;49.37
57574;BME280;63722;48.858;21.906;2022-09-27T05:02:34;97279.41;;;17.42;49.63
57574;BME280;63722;48.858;21.906;2022-09-27T05:04:59;97277.81;;;17.41;49.88
57574;BME280;63722;48.858;21.906;2022-09-27T05:07:25;97269.88;;;17.46;49.21
57574;BME280;63722;48.858;21.906;2022-09-27T05:09:51;97271.75;;;17.46;49.77
57574;BME280;63722;48.858;21.906;2022-09-27T05:12:18;97259.28;;;17.46;49.67
57574;BME280;63722;48.858;21.906;2022-09-27T05:14:43;97251.06;;;17.48;49.61
57574;BME280;63722;48.858;21.906;2022-09-27T05:17:09;97248.44;;;17.48;49.41
57574;BME280;63722;48.858;21.906;2022-09-27T05:19:34;97257.47;;;17.52;49.57
57574;BME280;63722;48.858;21.906;2022-09-27T05:22:00;97257.75;;;17.56;49.29
57574;BME280;63722;48.858;21.906;2022-09-27T05:24:26;97257.47;;;17.57;49.75
57574;BME280;63722;48.858;21.906;2022-09-27T05:27:00;97255.91;;;17.61;49.22
57574;BME280;63722;48.858;21.906;2022-09-27T05:29:26;97258.84;;;17.65;49.01
57574;BME280;63722;48.858;21.906;2022-09-27T05:31:51;97257.28;;;17.69;49.34
57574;BME280;63722;48.858;21.906;2022-09-27T05:34:16;97247.47;;;17.69;49.31
57574;BME280;63722;48.858;21.906;2022-09-27T05:36:46;97247.22;;;17.76;49.12
57574;BME280;63722;48.858;21.906;2022-09-27T05:39:12;97252.28;;;17.83;49.12
57574;BME280;63722;48.858;21.906;2022-09-27T05:41:37;97248.03;;;17.87;49.01
57574;BME280;63722;48.858;21.906;2022-09-27T05:44:03;97241.19;;;17.91;49.21
57574;BME280;63722;48.858;21.906;2022-09-27T05:46:30;97239.63;;;17.95;49.08
57574;BME280;63722;48.858;21.906;2022-09-27T05:48:55;97239.91;;;17.99;48.91
57574;BME280;63722;48.858;21.906;2022-09-27T05:51:20;97239.38;;;18.02;48.80
57574;BME280;63722;48.858;21.906;2022-09-27T05:53:46;97225.06;;;18.03;48.71
57574;BME280;63722;48.858;21.906;2022-09-27T05:56:12;97234.06;;;18.07;48.97
57574;BME280;63722;48.858;21.906;2022-09-27T05:58:37;97233.81;;;18.08;48.90
57574;BME280;63722;48.858;21.906;2022-09-27T06:01:05;97241.78;;;18.14;48.45
57574;BME280;63722;48.858;21.906;2022-09-27T06:03:32;97232.50;;;18.11;49.22
57574;BME280;63722;48.858;21.906;2022-09-27T06:06:00;97235.97;;;18.17;48.60
57574;BME280;63722;48.858;21.906;2022-09-27T06:08:32;97240.75;;;18.20;48.80
57574;BME280;63722;48.858;21.906;2022-09-27T06:11:04;97244.97;;;18.21;48.60
57574;BME280;63722;48.858;21.906;2022-09-27T06:13:31;97237.00;;;18.21;48.61
57574;BME280;63722;48.858;21.906;2022-09-27T06:16:01;97251.09;;;18.21;48.67
57574;BME280;63722;48.858;21.906;2022-09-27T06:18:26;97246.56;;;18.22;48.71
57574;BME280;63722;48.858;21.906;2022-09-27T06:20:51;97247.38;;;18.22;48.76
57574;BME280;63722;48.858;21.906;2022-09-27T06:23:19;97243.94;;;18.22;48.76
57574;BME280;63722;48.858;21.906;2022-09-27T06:25:45;97237.56;;;18.23;48.53
57574;BME280;63722;48.858;21.906;2022-09-27T06:28:12;97240.22;;;18.23;48.65
57574;BME280;63722;48.858;21.906;2022-09-27T06:30:43;97239.13;;;18.24;48.47
57574;BME280;63722;48.858;21.906;2022-09-27T06:33:11;97241.78;;;18.24;48.48
57574;BME280;63722;48.858;21.906;2022-09-27T06:35:36;97226.41;;;18.21;48.95
57574;BME280;63722;48.858;21.906;2022-09-27T06:38:06;97238.34;;;18.23;48.80
57574;BME280;63722;48.858;21.906;2022-09-27T06:40:34;97235.97;;;18.22;48.97
57574;BME280;63722;48.858;21.906;2022-09-27T06:43:03;97238.34;;;18.23;48.68
57574;BME280;63722;48.858;21.906;2022-09-27T06:45:32;97240.22;;;18.23;48.67
57574;BME280;63722;48.858;21.906;2022-09-27T06:47:58;97232.25;;;18.23;48.98
57574;BME280;63722;48.858;21.906;2022-09-27T06:50:31;97237.00;;;18.21;48.84
57574;BME280;63722;48.858;21.906;2022-09-27T06:52:57;97244.72;;;18.22;49.05
57574;BME280;63722;48.858;21.906;2022-09-27T06:55:23;97238.63;;;18.22;48.76
57574;BME280;63722;48.858;21.906;2022-09-27T06:57:55;97241.28;;;18.22;48.95
57574;BME280;63722;48.858;21.906;2022-09-27T07:00:40;97240.75;;;18.20;48.61
57574;BME280;63722;48.858;21.906;2022-09-27T07:03:08;97233.06;;;18.18;48.85
57574;BME280;63722;48.858;21.906;2022-09-27T07:05:36;97246.06;;;18.20;48.77
57574;BME280;63722;48.858;21.906;2022-09-27T07:08:02;97252.94;;;18.21;49.23
57574;BME280;63722;48.858;21.906;2022-09-27T07:10:31;97246.84;;;18.20;49.00
57574;BME280;63722;48.858;21.906;2022-09-27T07:13:08;97245.25;;;18.19;48.85
57574;BME280;63722;48.858;21.906;2022-09-27T07:15:35;97246.84;;;18.20;48.97
57574;BME280;63722;48.858;21.906;2022-09-27T07:18:02;97253.19;;;18.19;49.00
57574;BME280;63722;48.858;21.906;2022-09-27T07:20:28;97257.72;;;18.19;49.13
57574;BME280;63722;48.858;21.906;2022-09-27T07:22:54;97248.97;;;18.23;49.16
57574;BME280;63722;48.858;21.906;2022-09-27T07:25:20;97249.22;;;18.27;49.35
57574;BME280;63722;48.858;21.906;2022-09-27T07:27:46;97248.72;;;18.25;49.35
57574;BME280;63722;48.858;21.906;2022-09-27T07:30:12;97249.50;;;18.25;49.50
57574;BME280;63722;48.858;21.906;2022-09-27T07:32:38;97247.91;;;18.24;49.56
57574;BME280;63722;48.858;21.906;2022-09-27T07:35:04;97254.53;;;18.22;49.67
57574;BME280;63722;48.858;21.906;2022-09-27T07:37:31;97260.38;;;18.24;49.63
57574;BME280;63722;48.858;21.906;2022-09-27T07:39:57;97261.44;;;18.23;49.61
57574;BME280;63722;48.858;21.906;2022-09-27T07:42:22;97251.09;;;18.21;49.37
57574;BME280;63722;48.858;21.906;2022-09-27T07:44:48;97247.63;;;18.21;49.45
57574;BME280;63722;48.858;21.906;2022-09-27T07:47:13;97254.53;;;18.22;49.61
57574;BME280;63722;48.858;21.906;2022-09-27T07:49:39;97251.88;;;18.22;49.47
57574;BME280;63722;48.858;21.906;2022-09-27T07:52:04;97254.81;;;18.20;49.67
57574;BME280;63722;48.858;21.906;2022-09-27T07:54:29;97256.94;;;18.23;49.72
57574;BME280;63722;48.858;21.906;2022-09-27T07:56:55;97256.16;;;18.23;49.58
57574;BME280;63722;48.858;21.906;2022-09-27T07:59:20;97253.50;;;18.23;49.45
57574;BME280;63722;48.858;21.906;2022-09-27T08:01:45;97250.84;;;18.23;49.78
57574;BME280;63722;48.858;21.906;2022-09-27T08:04:11;97246.31;;;18.23;49.42
57574;BME280;63722;48.858;21.906;2022-09-27T08:06:36;97241.78;;;18.24;49.69
57574;BME280;63722;48.858;21.906;2022-09-27T08:09:05;97247.91;;;18.24;49.58
57574;BME280;63722;48.858;21.906;2022-09-27T08:11:30;97245.53;;;18.23;49.61
57574;BME280;63722;48.858;21.906;2022-09-27T08:13:56;97250.56;;;18.24;49.73
57574;BME280;63722;48.858;21.906;2022-09-27T08:16:21;97246.06;;;18.25;49.30
57574;BME280;63722;48.858;21.906;2022-09-27T08:18:47;97243.41;;;18.25;49.63
57574;BME280;63722;48.858;21.906;2022-09-27T08:21:12;97244.44;;;18.24;49.88
57574;BME280;63722;48.858;21.906;2022-09-27T08:23:38;97249.50;;;18.25;49.59
57574;BME280;63722;48.858;21.906;2022-09-27T08:26:03;97249.75;;;18.24;49.62
57574;BME280;63722;48.858;21.906;2022-09-27T08:28:29;97245.53;;;18.23;49.82
57574;BME280;63722;48.858;21.906;2022-09-27T08:30:57;97247.09;;;18.24;50.01
57574;BME280;63722;48.858;21.906;2022-09-27T08:33:23;97244.44;;;18.24;49.78
57574;BME280;63722;48.858;21.906;2022-09-27T08:35:50;97236.50;;;18.24;49.64
57574;BME280;63722;48.858;21.906;2022-09-27T08:38:15;97244.44;;;18.24;49.58
57574;BME280;63722;48.858;21.906;2022-09-27T08:40:56;97237.31;;;18.24;49.69
57574;BME280;63722;48.858;21.906;2022-09-27T08:49:16;97239.13;;;18.24;49.87
57574;BME280;63722;48.858;21.906;2022-09-27T08:51:44;97234.09;;;18.22;49.78
57574;BME280;63722;48.858;21.906;2022-09-27T08:54:16;97243.41;;;18.25;49.94
57574;BME280;63722;48.858;21.906;2022-09-27T08:56:44;97240.47;;;18.27;50.01
57574;BME280;63722;48.858;21.906;2022-09-27T08:59:14;97238.88;;;18.25;49.87
57574;BME280;63722;48.858;21.906;2022-09-27T09:01:45;97240.47;;;18.27;49.99
57574;BME280;63722;48.858;21.906;2022-09-27T09:04:20;97235.44;;;18.25;49.98
57574;BME280;63722;48.858;21.906;2022-09-27T09:07:21;97229.09;;;18.26;49.94
57574;BME280;63722;48.858;21.906;2022-09-27T09:26:47;97207.59;;;18.28;49.84
57574;BME280;63722;48.858;21.906;2022-09-27T09:35:38;97216.06;;;18.30;50.25
57574;BME280;63722;48.858;21.906;2022-09-27T09:38:13;97212.63;;;18.29;49.97
57574;BME280;63722;48.858;21.906;2022-09-27T09:40:52;97202.03;;;18.29;50.20
57574;BME280;63722;48.858;21.906;2022-09-27T09:43:24;97214.22;;;18.30;50.26
57574;BME280;63722;48.858;21.906;2022-09-27T09:46:21;97221.13;;;18.31;50.16
57574;BME280;63722;48.858;21.906;2022-09-27T09:48:57;97211.81;;;18.29;50.30
57574;BME280;63722;48.858;21.906;2022-09-27T09:51:33;97215.28;;;18.29;49.94
57574;BME280;63722;48.858;21.906;2022-09-27T09:54:07;97204.38;;;18.25;50.13
57574;BME280;63722;48.858;21.906;2022-09-27T09:57:05;97204.94;;;18.28;50.11
57574;BME280;63722;48.858;21.906;2022-09-27T10:04:59;97201.50;;;18.32;50.22
57574;BME280;63722;48.858;21.906;2022-09-27T10:07:25;97199.38;;;18.29;50.30
57574;BME280;63722;48.858;21.906;2022-09-27T10:09:53;97198.28;;;18.30;50.12
57574;BME280;63722;48.858;21.906;2022-09-27T10:12:19;97184.50;;;18.28;50.41
57574;BME280;63722;48.858;21.906;2022-09-27T10:14:47;97189.53;;;18.30;50.45
57574;BME280;63722;48.858;21.906;2022-09-27T10:17:16;97191.94;;;18.31;50.36
57574;BME280;63722;48.858;21.906;2022-09-27T10:19:43;97189.28;;;18.31;50.50
57574;BME280;63722;48.858;21.906;2022-09-27T10:22:17;97199.09;;;18.31;50.16
57574;BME280;63722;48.858;21.906;2022-09-27T10:25:00;97182.88;;;18.27;50.40
57574;BME280;63722;48.858;21.906;2022-09-27T10:27:28;97188.50;;;18.31;50.52
57574;BME280;63722;48.858;21.906;2022-09-27T10:30:02;97183.19;;;18.31;50.31
57574;BME280;63722;48.858;21.906;2022-09-27T10:32:32;97187.16;;;18.28;50.47
57574;BME280;63722;48.858;21.906;2022-09-27T10:35:20;97185.28;;;18.29;50.37
57574;BME280;63722;48.858;21.906;2022-09-27T10:37:46;97184.50;;;18.28;50.51
57574;BME280;63722;48.858;21.906;2022-09-27T10:40:30;97175.75;;;18.28;50.48
57574;BME280;63722;48.858;21.906;2022-09-27T10:42:58;97177.59;;;18.27;50.53
57574;BME280;63722;48.858;21.906;2022-09-27T10:47:51;97183.44;;;18.29;50.41
57574;BME280;63722;48.858;21.906;2022-09-27T10:50:28;97171.50;;;18.27;50.35
57574;BME280;63722;48.858;21.906;2022-09-27T10:55:33;97172.84;;;18.29;50.51
57574;BME280;63722;48.858;21.906;2022-09-27T10:58:00;97170.19;;;18.29;50.50
57574;BME280;63722;48.858;21.906;2022-09-27T11:00:34;97156.91;;;18.29;50.37
57574;BME280;63722;48.858;21.906;2022-09-27T11:07:57;97155.03;;;18.30;50.92
57574;BME280;63722;48.858;21.906;2022-09-27T11:16:09;97148.94;;;18.29;50.60
57574;BME280;63722;48.858;21.906;2022-09-27T11:32:18;97132.22;;;18.29;50.51
57574;BME280;63722;48.858;21.906;2022-09-27T11:35:07;97135.69;;;18.29;50.53
57574;BME280;63722;48.858;21.906;2022-09-27T11:55:49;97099.59;;;18.38;50.62
57574;BME280;63722;48.858;21.906;2022-09-27T12:07:05;97098.22;;;18.41;50.50
57574;BME280;63722;48.858;21.906;2022-09-27T12:09:38;97090.00;;;18.42;50.62
57574;BME280;63722;48.858;21.906;2022-09-27T12:12:10;97078.34;;;18.38;50.58
57574;BME280;63722;48.858;21.906;2022-09-27T12:17:15;97088.97;;;18.38;50.51
57574;BME280;63722;48.858;21.906;2022-09-27T12:19:45;97086.03;;;18.40;50.59
57574;BME280;63722;48.858;21.906;2022-09-27T12:22:20;97080.75;;;18.40;50.63
57574;BME280;63722;48.858;21.906;2022-09-27T12:24:47;97066.91;;;18.38;50.44
57574;BME280;63722;48.858;21.906;2022-09-27T12:27:23;97072.78;;;18.40;50.59
57574;BME280;63722;48.858;21.906;2022-09-27T12:29:52;97064.00;;;18.39;50.73
57574;BME280;63722;48.858;21.906;2022-09-27T12:32:34;97057.63;;;18.40;50.80
57574;BME280;63722;48.858;21.906;2022-09-27T12:35:18;97057.13;;;18.38;50.76
57574;BME280;63722;48.858;21.906;2022-09-27T12:37:46;97057.63;;;18.40;50.58
57574;BME280;63722;48.858;21.906;2022-09-27T12:40:18;97052.34;;;18.40;50.86
57574;BME280;63722;48.858;21.906;2022-09-27T12:42:52;97041.72;;;18.40;50.68
57574;BME280;63722;48.858;21.906;2022-09-27T12:51:09;97047.28;;;18.39;50.61
57574;BME280;63722;48.858;21.906;2022-09-27T12:56:45;97044.13;;;18.37;50.89
57574;BME280;63722;48.858;21.906;2022-09-27T13:10:52;97039.88;;;18.36;50.74
57574;BME280;63722;48.858;21.906;2022-09-27T13:13:24;97034.03;;;18.34;50.97
57574;BME280;63722;48.858;21.906;2022-09-27T13:15:56;97042.78;;;18.34;50.64
57574;BME280;63722;48.858;21.906;2022-09-27T13:21:04;97035.09;;;18.33;50.91
57574;BME280;63722;48.858;21.906;2022-09-27T13:26:19;97035.38;;;18.31;50.81
57574;BME280;63722;48.858;21.906;2022-09-27T13:34:45;97036.16;;;18.32;51.07
57574;BME280;63722;48.858;21.906;2022-09-27T13:40:40;97025.81;;;18.25;51.06
57574;BME280;63722;48.858;21.906;2022-09-27T13:45:41;97027.69;;;18.30;51.25
57574;BME280;63722;48.858;21.906;2022-09-27T13:48:21;97022.63;;;18.28;50.92
57574;BME280;63722;48.858;21.906;2022-09-27T13:53:39;97018.38;;;18.27;51.23
57574;BME280;63722;48.858;21.906;2022-09-27T13:59:18;97019.19;;;18.28;51.26
57574;BME280;63722;48.858;21.906;2022-09-27T14:01:50;97007.50;;;18.29;51.15
57574;BME280;63722;48.858;21.906;2022-09-27T14:04:21;97004.06;;;18.28;50.94
57574;BME280;63722;48.858;21.906;2022-09-27T14:06:51;96993.44;;;18.28;51.23
57574;BME280;63722;48.858;21.906;2022-09-27T14:09:22;96984.44;;;18.29;51.31
57574;BME280;63722;48.858;21.906;2022-09-27T14:11:56;96975.38;;;18.30;51.35
57574;BME280;63722;48.858;21.906;2022-09-27T14:14:26;96963.22;;;18.29;51.14
57574;BME280;63722;48.858;21.906;2022-09-27T14:16:53;96965.59;;;18.31;51.25
57574;BME280;63722;48.858;21.906;2022-09-27T14:19:21;96977.78;;;18.32;51.09
57574;BME280;63722;48.858;21.906;2022-09-27T14:21:47;96971.69;;;18.31;51.07
57574;BME280;63722;48.858;21.906;2022-09-27T14:24:43;96961.06;;;18.31;51.20
57574;BME280;63722;48.858;21.906;2022-09-27T14:29:40;96965.59;;;18.31;51.16
57574;BME280;63722;48.858;21.906;2022-09-27T14:32:18;96958.41;;;18.31;51.00
57574;BME280;63722;48.858;21.906;2022-09-27T14:34:44;96955.75;;;18.31;51.49
57574;BME280;63722;48.858;21.906;2022-09-27T14:37:19;96958.41;;;18.31;51.22
57574;BME280;63722;48.858;21.906;2022-09-27T14:40:20;96961.06;;;18.31;51.15
57574;BME280;63722;48.858;21.906;2022-09-27T14:42:51;96956.03;;;18.30;51.43
57574;BME280;63722;48.858;21.906;2022-09-27T14:45:22;96966.38;;;18.31;51.42
57574;BME280;63722;48.858;21.906;2022-09-27T14:47:50;96966.66;;;18.30;51.08
57574;BME280;63722;48.858;21.906;2022-09-27T14:50:21;96964.78;;;18.30;51.34
57574;BME280;63722;48.858;21.906;2022-09-27T14:52:47;96965.84;;;18.29;51.22
57574;BME280;63722;48.858;21.906;2022-09-27T14:55:17;96965.84;;;18.29;51.08
57574;BME280;63722;48.858;21.906;2022-09-27T14:57:54;96958.69;;;18.30;51.35
57574;BME280;63722;48.858;21.906;2022-09-27T15:00:23;96951.00;;;18.28;51.56
57574;BME280;63722;48.858;21.906;2022-09-27T15:02:52;96954.69;;;18.27;51.00
57574;BME280;63722;48.858;21.906;2022-09-27T15:05:21;96949.13;;;18.29;50.99
57574;BME280;63722;48.858;21.906;2022-09-27T15:07:49;96949.41;;;18.27;51.43
57574;BME280;63722;48.858;21.906;2022-09-27T15:10:21;96944.09;;;18.27;51.39
57574;BME280;63722;48.858;21.906;2022-09-27T15:12:49;96944.09;;;18.27;51.53
57574;BME280;63722;48.858;21.906;2022-09-27T15:15:28;96948.63;;;18.27;51.52
57574;BME280;63722;48.858;21.906;2022-09-27T15:18:01;96945.19;;;18.26;51.57
57574;BME280;63722;48.858;21.906;2022-09-27T15:20:32;96954.19;;;18.25;51.30
57574;BME280;63722;48.858;21.906;2022-09-27T15:23:02;96956.84;;;18.25;51.27
57574;BME280;63722;48.858;21.906;2022-09-27T15:25:41;96952.31;;;18.25;51.34
57574;BME280;63722;48.858;21.906;2022-09-27T15:30:40;96954.72;;;18.22;51.47
57574;BME280;63722;48.858;21.906;2022-09-27T15:33:20;96966.66;;;18.24;51.52
57574;BME280;63722;48.858;21.906;2022-09-27T15:35:57;96969.59;;;18.23;51.26
57574;BME280;63722;48.858;21.906;2022-09-27T15:41:10;96973.31;;;18.22;51.38
57574;BME280;63722;48.858;21.906;2022-09-27T15:43:47;96975.94;;;18.22;51.43
57574;BME280;63722;48.858;21.906;2022-09-27T15:46:33;96977.00;;;18.21;51.49
57574;BME280;63722;48.858;21.906;2022-09-27T15:49:19;96971.69;;;18.21;51.57
57574;BME280;63722;48.858;21.906;2022-09-27T15:51:49;96966.41;;;18.21;51.47
57574;BME280;63722;48.858;21.906;2022-09-27T15:54:19;96971.69;;;18.21;51.27
57574;BME280;63722;48.858;21.906;2022-09-27T15:56:45;96970.13;;;18.20;51.76
57574;BME280;63722;48.858;21.906;2022-09-27T15:59:33;96973.84;;;18.19;51.57
57574;BME280;63722;48.858;21.906;2022-09-27T16:02:05;96966.94;;;18.18;51.32
57574;BME280;63722;48.858;21.906;2022-09-27T16:04:34;96961.63;;;18.18;51.47
57574;BME280;63722;48.858;21.906;2022-09-27T16:07:00;96965.38;;;18.17;51.42
57574;BME280;63722;48.858;21.906;2022-09-27T16:09:26;96962.72;;;18.17;51.75
57574;BME280;63722;48.858;21.906;2022-09-27T16:11:51;96964.28;;;18.18;51.53